Hauptseite
METAR-TAF:

METAR-TAF

Flughäfen :

Resistencia, Argentinien

Breite: 27-27S, Länge: 059-03W, Höhe: 53 m

Beobachtung

Neuester Wetterbericht von vor 10 Minuten, um 00:00 UTC
Wind 5 kt aus Ost/Nordost
Temperatur 20°C
Luftfeuchtigkeit 49%
Luftdruck 1009 hPa
Sichtweite 10 km oder mehr
keine Wolken unter 1500 m und keine Kumulonimbus oder Gewitterwolken

METAR: SARE 200000Z 06005KT CAVOK 20/09 Q1009

Zeit: 21:10 (00:10 UTC)

Prognose

Neuester Wetterbericht von vor 7 Stunden und 10 Minuten, um 17:00 UTC
Gültige Prognose vom 19 um 18 UTC bis 20 um 18 UTC
Wind 10 kt aus Ost/Nordost
Sichtweite 10 km oder mehr
keine Wolken unter 1500 m und keine Kumulonimbus oder Gewitterwolken

TAF: SARE 191700Z 1918/2018 07010KT CAVOK TX31/2018Z TN10/2009Z

Wetterbeobachtungen und Prognosen von mehr als 4000 Flughäfen (METAR und TAF Bericht).

Die verfügbaren Stationen werden durch gelbe und rote Markierungen auf der Karte dargestellt.

Führen Sie die Maus auf sie, um den Namen der Station zu sehen.

Darauf klicken, um die Beobachtung von Wetterbeobachtungen und Prognosen zu sehen.

Um die Karte zu ändern : klicken Sie auf den grünen Tasten mit einem schwarzen Kreuz Zum Vergrößern, auf den grünen Button mit einem Gedankenstrich zu verkleinern, oder auf die grünen Pfeile für benachbarte Karten.


METAR-TAF: